THY72M LTFC-LTFM
Flight info
| Callsign | THY72M |
|---|---|
| Flight time | 0h 46m |
| Altitude | 30000 |
| Route | LTFC SID EKSEN A16 LEMDA UA16 KFK UM855 SISPI STAR LTFM |
| Aircraft | B738/M-S/A |
Departure
| Time | 2026-05-01 14:36 |
|---|---|
| Airport | Süleyman Demirel International Airport (LTFC) |
Arrival
| Time | 2026-05-01 15:23 |
|---|---|
| Airport | İstanbul Airport (LTFM) |
| Time | Latitude | Longitude | Altitude | Speed | Heading |
|---|---|---|---|---|---|
| 2026-05-01 14:25 | 37.85876 | 30.36690 | 2843 ft | 0 kts | 320° |
| 2026-05-01 14:28 | 37.85861 | 30.36707 | 2841 ft | 4 kts | 319° |
| 2026-05-01 14:29 | 37.85843 | 30.36728 | 2842 ft | 2 kts | 309° |
| 2026-05-01 14:29 | 37.85837 | 30.36740 | 2841 ft | 2 kts | 265° |
| 2026-05-01 14:30 | 37.85845 | 30.36760 | 2841 ft | 0 kts | 229° |
| 2026-05-01 14:31 | 37.85845 | 30.36759 | 2841 ft | 1 kts | 229° |
| 2026-05-01 14:32 | 37.85832 | 30.36740 | 2841 ft | 5 kts | 234° |
| 2026-05-01 14:32 | 37.85793 | 30.36735 | 2840 ft | 7 kts | 150° |
| 2026-05-01 14:32 | 37.85750 | 30.36780 | 2842 ft | 9 kts | 139° |
| 2026-05-01 14:32 | 37.85700 | 30.36834 | 2843 ft | 9 kts | 139° |
| 2026-05-01 14:33 | 37.85647 | 30.36878 | 2843 ft | 9 kts | 179° |
| 2026-05-01 14:33 | 37.85591 | 30.36817 | 2842 ft | 13 kts | 230° |
| 2026-05-01 14:33 | 37.85522 | 30.36715 | 2842 ft | 17 kts | 229° |
| 2026-05-01 14:33 | 37.85435 | 30.36587 | 2841 ft | 21 kts | 229° |
| 2026-05-01 14:34 | 37.85329 | 30.36429 | 2842 ft | 25 kts | 230° |
| 2026-05-01 14:34 | 37.85208 | 30.36250 | 2842 ft | 27 kts | 230° |
| 2026-05-01 14:34 | 37.85088 | 30.36072 | 2842 ft | 26 kts | 229° |
| 2026-05-01 14:34 | 37.84973 | 30.35899 | 2844 ft | 25 kts | 230° |
| 2026-05-01 14:35 | 37.84863 | 30.35736 | 2844 ft | 23 kts | 233° |
| 2026-05-01 14:35 | 37.84805 | 30.35570 | 2844 ft | 18 kts | 197° |
| 2026-05-01 14:35 | 37.84773 | 30.35623 | 2845 ft | 8 kts | 28° |
| 2026-05-01 14:35 | 37.84826 | 30.35684 | 2843 ft | 19 kts | 50° |
| 2026-05-01 14:36 | 37.85087 | 30.36069 | 2842 ft | 97 kts | 49° |
| 2026-05-01 14:36 | 37.85692 | 30.36948 | 2844 ft | 165 kts | 44° |
| 2026-05-01 14:36 | 37.86542 | 30.38113 | 3385 ft | 179 kts | 44° |
| 2026-05-01 14:36 | 37.87357 | 30.39332 | 4176 ft | 189 kts | 47° |
| 2026-05-01 14:37 | 37.88185 | 30.40672 | 4888 ft | 207 kts | 55° |
| 2026-05-01 14:37 | 37.88926 | 30.42300 | 5466 ft | 218 kts | 57° |
| 2026-05-01 14:37 | 37.89701 | 30.44023 | 6046 ft | 231 kts | 58° |
| 2026-05-01 14:37 | 37.90484 | 30.45865 | 6589 ft | 245 kts | 62° |
| 2026-05-01 14:38 | 37.91256 | 30.47861 | 7101 ft | 259 kts | 63° |
| 2026-05-01 14:38 | 37.92059 | 30.49955 | 7634 ft | 271 kts | 64° |
| 2026-05-01 14:38 | 37.92908 | 30.52156 | 8250 ft | 281 kts | 64° |
| 2026-05-01 14:38 | 37.93787 | 30.54413 | 9064 ft | 288 kts | 64° |
| 2026-05-01 14:39 | 37.94690 | 30.56713 | 9855 ft | 294 kts | 64° |
| 2026-05-01 14:39 | 37.95600 | 30.59026 | 10525 ft | 305 kts | 64° |
| 2026-05-01 14:39 | 37.96561 | 30.61464 | 11000 ft | 320 kts | 63° |
| 2026-05-01 14:39 | 37.97898 | 30.63775 | 11485 ft | 333 kts | 38° |
| 2026-05-01 14:40 | 37.99947 | 30.65137 | 12034 ft | 338 kts | 9° |
| 2026-05-01 14:40 | 38.02300 | 30.65307 | 12565 ft | 344 kts | 352° |
| 2026-05-01 14:40 | 38.04749 | 30.64996 | 12892 ft | 361 kts | 349° |
| 2026-05-01 14:40 | 38.07264 | 30.64622 | 13675 ft | 366 kts | 349° |
| 2026-05-01 14:41 | 38.09806 | 30.64240 | 14443 ft | 369 kts | 348° |
| 2026-05-01 14:41 | 38.12373 | 30.63864 | 15172 ft | 373 kts | 349° |
| 2026-05-01 14:41 | 38.14966 | 30.63495 | 15881 ft | 377 kts | 349° |
| 2026-05-01 14:41 | 38.17590 | 30.63131 | 16517 ft | 382 kts | 349° |
| 2026-05-01 14:42 | 38.20253 | 30.62768 | 17187 ft | 386 kts | 348° |
| 2026-05-01 14:42 | 38.22937 | 30.62406 | 17834 ft | 391 kts | 348° |
| 2026-05-01 14:42 | 38.25659 | 30.62042 | 18467 ft | 396 kts | 348° |
| 2026-05-01 14:42 | 38.28409 | 30.61674 | 19110 ft | 398 kts | 348° |
| 2026-05-01 14:43 | 38.31177 | 30.61305 | 19783 ft | 402 kts | 348° |
| 2026-05-01 14:43 | 38.33967 | 30.60932 | 20402 ft | 405 kts | 348° |
| 2026-05-01 14:43 | 38.36745 | 30.60561 | 20976 ft | 409 kts | 348° |
| 2026-05-01 14:43 | 38.39594 | 30.60180 | 21549 ft | 413 kts | 348° |
| 2026-05-01 14:44 | 38.42465 | 30.59795 | 22093 ft | 417 kts | 348° |
| 2026-05-01 14:44 | 38.48289 | 30.59013 | 23171 ft | 424 kts | 348° |
| 2026-05-01 14:44 | 38.51237 | 30.58617 | 23708 ft | 427 kts | 347° |
| 2026-05-01 14:45 | 38.54208 | 30.58218 | 24185 ft | 430 kts | 347° |
| 2026-05-01 14:45 | 38.60171 | 30.57417 | 25169 ft | 432 kts | 347° |
| 2026-05-01 14:45 | 38.63168 | 30.57014 | 25615 ft | 434 kts | 347° |
| 2026-05-01 14:46 | 38.66181 | 30.56607 | 26060 ft | 436 kts | 347° |
| 2026-05-01 14:46 | 38.72218 | 30.55791 | 26906 ft | 440 kts | 347° |
| 2026-05-01 14:46 | 38.75268 | 30.55379 | 27323 ft | 442 kts | 347° |
| 2026-05-01 14:47 | 38.78332 | 30.54933 | 27789 ft | 440 kts | 343° |
| 2026-05-01 14:47 | 38.81264 | 30.54039 | 28380 ft | 428 kts | 334° |
| 2026-05-01 14:47 | 38.83960 | 30.52572 | 29054 ft | 415 kts | 325° |
| 2026-05-01 14:48 | 38.89066 | 30.49210 | 30085 ft | 413 kts | 325° |
| 2026-05-01 14:48 | 38.96444 | 30.44442 | 30085 ft | 416 kts | 326° |
| 2026-05-01 14:49 | 39.06885 | 30.37741 | 30095 ft | 422 kts | 325° |
| 2026-05-01 14:50 | 39.17389 | 30.30984 | 30106 ft | 421 kts | 325° |
| 2026-05-01 14:51 | 39.25245 | 30.25912 | 30102 ft | 420 kts | 325° |
| 2026-05-01 14:52 | 39.33070 | 30.20845 | 30113 ft | 419 kts | 325° |
| 2026-05-01 14:53 | 39.40890 | 30.15769 | 30115 ft | 419 kts | 325° |
| 2026-05-01 14:53 | 39.45222 | 30.12953 | 30118 ft | 419 kts | 325° |
| 2026-05-01 14:54 | 39.51431 | 30.09321 | 30122 ft | 422 kts | 329° |
| 2026-05-01 14:54 | 39.55975 | 30.06855 | 30129 ft | 423 kts | 329° |
| 2026-05-01 14:55 | 39.61360 | 30.03893 | 30125 ft | 423 kts | 328° |
| 2026-05-01 14:55 | 39.66766 | 30.00879 | 30130 ft | 423 kts | 328° |
| 2026-05-01 14:56 | 39.72180 | 29.97846 | 29941 ft | 426 kts | 328° |
| 2026-05-01 14:56 | 39.74905 | 29.96318 | 29661 ft | 426 kts | 328° |
| 2026-05-01 14:56 | 39.77628 | 29.94792 | 29389 ft | 426 kts | 329° |
| 2026-05-01 14:56 | 39.80358 | 29.93259 | 29120 ft | 427 kts | 329° |
| 2026-05-01 14:57 | 39.83088 | 29.91723 | 28851 ft | 429 kts | 329° |
| 2026-05-01 14:57 | 39.88557 | 29.88647 | 28282 ft | 419 kts | 329° |
| 2026-05-01 14:57 | 39.91228 | 29.87266 | 28103 ft | 413 kts | 336° |
| 2026-05-01 14:58 | 39.94116 | 29.86834 | 27694 ft | 425 kts | 355° |
| 2026-05-01 14:58 | 39.97051 | 29.86976 | 27297 ft | 419 kts | 354° |
| 2026-05-01 14:58 | 39.99956 | 29.87021 | 26909 ft | 421 kts | 353° |
| 2026-05-01 14:58 | 40.02912 | 29.87014 | 26495 ft | 424 kts | 353° |
| 2026-05-01 14:59 | 40.05860 | 29.86994 | 26086 ft | 424 kts | 353° |
| 2026-05-01 14:59 | 40.08797 | 29.86979 | 25679 ft | 420 kts | 353° |
| 2026-05-01 14:59 | 40.11711 | 29.86969 | 25273 ft | 417 kts | 353° |
| 2026-05-01 14:59 | 40.14570 | 29.86964 | 24885 ft | 415 kts | 354° |
| 2026-05-01 15:00 | 40.20321 | 29.86955 | 24098 ft | 411 kts | 354° |
| 2026-05-01 15:00 | 40.23171 | 29.86950 | 23695 ft | 408 kts | 354° |
| 2026-05-01 15:00 | 40.26003 | 29.86945 | 23250 ft | 406 kts | 354° |
| 2026-05-01 15:01 | 40.28819 | 29.86940 | 22815 ft | 404 kts | 355° |
| 2026-05-01 15:01 | 40.31618 | 29.86934 | 22416 ft | 401 kts | 355° |
| 2026-05-01 15:01 | 40.34395 | 29.86931 | 22021 ft | 398 kts | 355° |
| 2026-05-01 15:01 | 40.37149 | 29.86927 | 21682 ft | 394 kts | 355° |
| 2026-05-01 15:02 | 40.39854 | 29.86655 | 21261 ft | 386 kts | 343° |
| 2026-05-01 15:02 | 40.41594 | 29.86057 | 21001 ft | 380 kts | 336° |
| 2026-05-01 15:02 | 40.44719 | 29.84111 | 20379 ft | 372 kts | 322° |
| 2026-05-01 15:02 | 40.46873 | 29.82253 | 19950 ft | 369 kts | 322° |
| 2026-05-01 15:03 | 40.49017 | 29.80413 | 19481 ft | 368 kts | 322° |
| 2026-05-01 15:03 | 40.51161 | 29.78587 | 19048 ft | 366 kts | 322° |
| 2026-05-01 15:03 | 40.53291 | 29.76780 | 18614 ft | 362 kts | 323° |
| 2026-05-01 15:03 | 40.55400 | 29.74995 | 18143 ft | 360 kts | 323° |
| 2026-05-01 15:04 | 40.57502 | 29.73218 | 17667 ft | 357 kts | 323° |
| 2026-05-01 15:04 | 40.59554 | 29.71484 | 17224 ft | 354 kts | 323° |
| 2026-05-01 15:04 | 40.61615 | 29.69741 | 16777 ft | 351 kts | 323° |
| 2026-05-01 15:04 | 40.63688 | 29.67988 | 16356 ft | 347 kts | 324° |
| 2026-05-01 15:05 | 40.65711 | 29.66275 | 15933 ft | 345 kts | 324° |
| 2026-05-01 15:05 | 40.67720 | 29.64573 | 15516 ft | 342 kts | 324° |
| 2026-05-01 15:05 | 40.69688 | 29.62904 | 15112 ft | 339 kts | 324° |
| 2026-05-01 15:05 | 40.71695 | 29.61202 | 14695 ft | 337 kts | 324° |
| 2026-05-01 15:06 | 40.73630 | 29.59558 | 14287 ft | 334 kts | 324° |
| 2026-05-01 15:06 | 40.75583 | 29.57899 | 13870 ft | 332 kts | 324° |
| 2026-05-01 15:06 | 40.77520 | 29.56252 | 13437 ft | 330 kts | 324° |
| 2026-05-01 15:06 | 40.79447 | 29.54611 | 12995 ft | 329 kts | 325° |
| 2026-05-01 15:07 | 40.81364 | 29.52979 | 12600 ft | 327 kts | 325° |
| 2026-05-01 15:07 | 40.83271 | 29.51354 | 12048 ft | 323 kts | 326° |
| 2026-05-01 15:07 | 40.85130 | 29.49770 | 11635 ft | 312 kts | 326° |
| 2026-05-01 15:07 | 40.86904 | 29.48185 | 11225 ft | 302 kts | 319° |
| 2026-05-01 15:08 | 40.88132 | 29.46039 | 10901 ft | 289 kts | 294° |
| 2026-05-01 15:08 | 40.88662 | 29.43538 | 10580 ft | 280 kts | 276° |
| 2026-05-01 15:08 | 40.88814 | 29.41018 | 10285 ft | 271 kts | 275° |
| 2026-05-01 15:08 | 40.88953 | 29.38563 | 9970 ft | 264 kts | 275° |
| 2026-05-01 15:09 | 40.89090 | 29.36150 | 9667 ft | 262 kts | 275° |
| 2026-05-01 15:09 | 40.89229 | 29.33750 | 9371 ft | 262 kts | 276° |
| 2026-05-01 15:09 | 40.89369 | 29.31351 | 9083 ft | 262 kts | 276° |
| 2026-05-01 15:09 | 40.89510 | 29.28955 | 8787 ft | 261 kts | 276° |
| 2026-05-01 15:10 | 40.89649 | 29.26592 | 8502 ft | 261 kts | 276° |
| 2026-05-01 15:10 | 40.89932 | 29.21798 | 7934 ft | 262 kts | 277° |
| 2026-05-01 15:10 | 40.90075 | 29.19390 | 7635 ft | 263 kts | 278° |
| 2026-05-01 15:11 | 40.90216 | 29.16979 | 7349 ft | 263 kts | 278° |
| 2026-05-01 15:11 | 40.90500 | 29.12142 | 6776 ft | 264 kts | 278° |
| 2026-05-01 15:11 | 40.90642 | 29.09722 | 6481 ft | 265 kts | 278° |
| 2026-05-01 15:12 | 40.90784 | 29.07291 | 6173 ft | 265 kts | 278° |
| 2026-05-01 15:12 | 40.91065 | 29.02442 | 5591 ft | 264 kts | 278° |
| 2026-05-01 15:12 | 40.91214 | 29.00028 | 5291 ft | 262 kts | 280° |
| 2026-05-01 15:13 | 40.91844 | 28.92979 | 4430 ft | 252 kts | 281° |
| 2026-05-01 15:14 | 40.92247 | 28.88420 | 4040 ft | 245 kts | 282° |
| 2026-05-01 15:14 | 40.92441 | 28.86196 | 4033 ft | 241 kts | 282° |
| 2026-05-01 15:14 | 40.92822 | 28.81814 | 4020 ft | 239 kts | 282° |
| 2026-05-01 15:15 | 40.94461 | 28.78416 | 4043 ft | 222 kts | 335° |
| 2026-05-01 15:15 | 40.97107 | 28.76382 | 4006 ft | 210 kts | 340° |
| 2026-05-01 15:16 | 40.99695 | 28.76336 | 4021 ft | 186 kts | 5° |
| 2026-05-01 15:16 | 41.02158 | 28.76013 | 4034 ft | 170 kts | 5° |
| 2026-05-01 15:17 | 41.04493 | 28.76057 | 4022 ft | 167 kts | 5° |
| 2026-05-01 15:18 | 41.07929 | 28.76021 | 4012 ft | 166 kts | 5° |
| 2026-05-01 15:18 | 41.09096 | 28.75999 | 3796 ft | 166 kts | 4° |
| 2026-05-01 15:19 | 41.12401 | 28.75931 | 3148 ft | 152 kts | 5° |
| 2026-05-01 15:19 | 41.14537 | 28.75895 | 2736 ft | 155 kts | 5° |
| 2026-05-01 15:19 | 41.15616 | 28.75870 | 2509 ft | 155 kts | 4° |
| 2026-05-01 15:20 | 41.17612 | 28.75829 | 2144 ft | 133 kts | 6° |
| 2026-05-01 15:20 | 41.18523 | 28.75814 | 1932 ft | 124 kts | 6° |
| 2026-05-01 15:20 | 41.19338 | 28.75800 | 1801 ft | 119 kts | 6° |
| 2026-05-01 15:21 | 41.20169 | 28.75784 | 1613 ft | 119 kts | 6° |
| 2026-05-01 15:21 | 41.20999 | 28.75769 | 1454 ft | 120 kts | 6° |
| 2026-05-01 15:21 | 41.21840 | 28.75754 | 1270 ft | 119 kts | 6° |
| 2026-05-01 15:21 | 41.22659 | 28.75738 | 1087 ft | 117 kts | 6° |
| 2026-05-01 15:22 | 41.24303 | 28.75705 | 736 ft | 117 kts | 8° |
| 2026-05-01 15:22 | 41.25117 | 28.75694 | 565 ft | 123 kts | 6° |
| 2026-05-01 15:22 | 41.25962 | 28.75675 | 409 ft | 120 kts | 7° |
| 2026-05-01 15:23 | 41.26775 | 28.75686 | 319 ft | 105 kts | 358° |
| 2026-05-01 15:23 | 41.27238 | 28.75656 | 317 ft | 53 kts | 359° |
| 2026-05-01 15:23 | 41.27582 | 28.75655 | 311 ft | 47 kts | 359° |
| 2026-05-01 15:23 | 41.27887 | 28.75643 | 304 ft | 40 kts | 358° |
| 2026-05-01 15:24 | 41.28075 | 28.75563 | 291 ft | 19 kts | 330° |
| 2026-05-01 15:24 | 41.28129 | 28.75523 | 278 ft | 2 kts | 332° |
| 2026-05-01 15:24 | 41.28142 | 28.75514 | 276 ft | 0 kts | 333° |
| 2026-05-01 15:24 | 41.28143 | 28.75514 | 276 ft | 2 kts | 334° |
| 2026-05-01 15:25 | 41.28174 | 28.75446 | 266 ft | 17 kts | 278° |
| 2026-05-01 15:25 | 41.28084 | 28.75355 | 266 ft | 19 kts | 181° |
| 2026-05-01 15:25 | 41.27956 | 28.75356 | 274 ft | 18 kts | 180° |
| 2026-05-01 15:25 | 41.27833 | 28.75359 | 283 ft | 18 kts | 179° |
| 2026-05-01 15:26 | 41.27711 | 28.75360 | 287 ft | 17 kts | 180° |
| 2026-05-01 15:26 | 41.27626 | 28.75340 | 291 ft | 9 kts | 249° |
| 2026-05-01 15:26 | 41.27619 | 28.75233 | 293 ft | 14 kts | 269° |
| 2026-05-01 15:26 | 41.27618 | 28.75096 | 297 ft | 17 kts | 269° |
| 2026-05-01 15:27 | 41.27600 | 28.74995 | 299 ft | 4 kts | 213° |
| 2026-05-01 15:27 | 41.27571 | 28.74995 | 300 ft | 0 kts | 180° |
| 2026-05-01 15:27 | 41.27570 | 28.74995 | 300 ft | 0 kts | 180° |